sensor_id;sensor_type;location;lat;lon;timestamp;P1;P2;P0
64861;PMS5003;62652;42.274;-71.436;2023-02-15T00:00:00;3.97;3.53;2.60
64861;PMS5003;62652;42.274;-71.436;2023-02-15T00:01:05;5.20;4.77;3.00
64861;PMS5003;62652;42.274;-71.436;2023-02-15T00:02:00;5.17;4.27;3.27
64861;PMS5003;62652;42.274;-71.436;2023-02-15T00:03:00;3.27;3.27;3.00
64861;PMS5003;62652;42.274;-71.436;2023-02-15T00:04:01;4.57;4.00;3.00
64861;PMS5003;62652;42.274;-71.436;2023-02-15T00:05:00;6.50;5.57;4.17
64861;PMS5003;62652;42.274;-71.436;2023-02-15T00:06:00;6.03;5.40;3.60
64861;PMS5003;62652;42.274;-71.436;2023-02-15T00:07:00;4.23;4.23;2.97
64861;PMS5003;62652;42.274;-71.436;2023-02-15T00:08:00;7.50;6.70;4.40
64861;PMS5003;62652;42.274;-71.436;2023-02-15T00:09:00;6.30;5.43;3.87
64861;PMS5003;62652;42.274;-71.436;2023-02-15T00:10:00;6.03;5.77;4.00
64861;PMS5003;62652;42.274;-71.436;2023-02-15T00:11:04;5.93;5.30;3.73
64861;PMS5003;62652;42.274;-71.436;2023-02-15T00:12:00;5.37;4.97;3.90
64861;PMS5003;62652;42.274;-71.436;2023-02-15T00:13:00;7.23;6.73;4.83
64861;PMS5003;62652;42.274;-71.436;2023-02-15T00:14:00;9.87;8.27;5.97
64861;PMS5003;62652;42.274;-71.436;2023-02-15T00:15:01;7.60;7.50;4.97
64861;PMS5003;62652;42.274;-71.436;2023-02-15T00:16:01;9.37;9.17;6.27
64861;PMS5003;62652;42.274;-71.436;2023-02-15T00:17:00;10.63;9.00;7.27
64861;PMS5003;62652;42.274;-71.436;2023-02-15T00:18:00;7.33;6.80;4.80
64861;PMS5003;62652;42.274;-71.436;2023-02-15T00:19:00;8.47;7.47;5.10
64861;PMS5003;62652;42.274;-71.436;2023-02-15T00:20:00;8.70;7.17;4.93
64861;PMS5003;62652;42.274;-71.436;2023-02-15T00:21:03;6.37;5.93;4.37
64861;PMS5003;62652;42.274;-71.436;2023-02-15T00:22:00;7.03;7.03;5.23
64861;PMS5003;62652;42.274;-71.436;2023-02-15T00:23:00;9.27;9.23;8.10
64861;PMS5003;62652;42.274;-71.436;2023-02-15T00:24:01;8.23;8.00;6.00
64861;PMS5003;62652;42.274;-71.436;2023-02-15T00:25:00;7.47;6.93;5.33
64861;PMS5003;62652;42.274;-71.436;2023-02-15T00:26:03;6.43;5.93;5.00
64861;PMS5003;62652;42.274;-71.436;2023-02-15T00:27:00;8.57;6.93;4.77
64861;PMS5003;62652;42.274;-71.436;2023-02-15T00:28:00;5.73;5.00;3.80
64861;PMS5003;62652;42.274;-71.436;2023-02-15T00:29:00;7.70;6.57;4.60
64861;PMS5003;62652;42.274;-71.436;2023-02-15T00:30:00;6.80;6.57;4.77
64861;PMS5003;62652;42.274;-71.436;2023-02-15T00:31:02;7.53;7.30;5.57
64861;PMS5003;62652;42.274;-71.436;2023-02-15T00:32:00;7.33;6.10;3.70
64861;PMS5003;62652;42.274;-71.436;2023-02-15T00:33:00;8.00;6.93;4.77
64861;PMS5003;62652;42.274;-71.436;2023-02-15T00:34:01;10.70;8.70;5.30
64861;PMS5003;62652;42.274;-71.436;2023-02-15T00:35:00;10.83;9.63;7.23
64861;PMS5003;62652;42.274;-71.436;2023-02-15T00:36:00;8.43;7.67;5.87
64861;PMS5003;62652;42.274;-71.436;2023-02-15T00:37:01;6.40;6.40;4.80
64861;PMS5003;62652;42.274;-71.436;2023-02-15T00:38:00;8.63;8.30;5.13
64861;PMS5003;62652;42.274;-71.436;2023-02-15T00:39:00;7.17;6.97;5.33
64861;PMS5003;62652;42.274;-71.436;2023-02-15T00:40:00;7.43;7.37;5.27
64861;PMS5003;62652;42.274;-71.436;2023-02-15T00:41:01;6.57;5.90;4.00
64861;PMS5003;62652;42.274;-71.436;2023-02-15T00:42:00;6.53;6.43;4.43
64861;PMS5003;62652;42.274;-71.436;2023-02-15T00:43:00;7.40;6.77;5.63
64861;PMS5003;62652;42.274;-71.436;2023-02-15T00:44:00;8.80;7.77;6.00
64861;PMS5003;62652;42.274;-71.436;2023-02-15T00:45:00;9.40;8.50;6.43
64861;PMS5003;62652;42.274;-71.436;2023-02-15T00:46:00;14.87;14.07;9.37
64861;PMS5003;62652;42.274;-71.436;2023-02-15T00:47:00;15.83;14.53;11.53
64861;PMS5003;62652;42.274;-71.436;2023-02-15T00:48:01;17.23;14.57;10.87
64861;PMS5003;62652;42.274;-71.436;2023-02-15T00:49:01;12.40;11.97;8.57
64861;PMS5003;62652;42.274;-71.436;2023-02-15T00:50:00;12.03;10.93;8.23
64861;PMS5003;62652;42.274;-71.436;2023-02-15T00:51:00;12.93;11.17;9.27
64861;PMS5003;62652;42.274;-71.436;2023-02-15T00:52:00;11.63;10.80;8.67
64861;PMS5003;62652;42.274;-71.436;2023-02-15T00:53:00;13.10;12.97;10.10
64861;PMS5003;62652;42.274;-71.436;2023-02-15T00:54:00;14.13;13.40;9.03
64861;PMS5003;62652;42.274;-71.436;2023-02-15T00:55:00;21.73;18.87;11.60
64861;PMS5003;62652;42.274;-71.436;2023-02-15T00:56:00;11.87;10.90;7.27
64861;PMS5003;62652;42.274;-71.436;2023-02-15T00:57:00;7.63;7.30;5.90
64861;PMS5003;62652;42.274;-71.436;2023-02-15T00:58:00;12.13;10.83;8.23
64861;PMS5003;62652;42.274;-71.436;2023-02-15T00:59:01;8.27;7.00;5.97
64861;PMS5003;62652;42.274;-71.436;2023-02-15T01:00:00;10.53;9.53;6.17
64861;PMS5003;62652;42.274;-71.436;2023-02-15T01:01:02;8.57;8.03;5.20
64861;PMS5003;62652;42.274;-71.436;2023-02-15T01:02:00;9.33;7.70;5.97
64861;PMS5003;62652;42.274;-71.436;2023-02-15T01:03:00;8.67;6.97;5.13
64861;PMS5003;62652;42.274;-71.436;2023-02-15T01:04:01;8.77;8.33;5.27
64861;PMS5003;62652;42.274;-71.436;2023-02-15T01:05:00;9.27;8.13;6.30
64861;PMS5003;62652;42.274;-71.436;2023-02-15T01:06:00;11.60;9.90;6.40
64861;PMS5003;62652;42.274;-71.436;2023-02-15T01:07:00;14.43;13.30;9.07
64861;PMS5003;62652;42.274;-71.436;2023-02-15T01:08:00;13.00;10.93;7.77
64861;PMS5003;62652;42.274;-71.436;2023-02-15T01:09:00;13.77;13.30;8.97
64861;PMS5003;62652;42.274;-71.436;2023-02-15T01:10:01;13.27;12.00;8.83
64861;PMS5003;62652;42.274;-71.436;2023-02-15T01:11:03;16.40;15.43;9.43
64861;PMS5003;62652;42.274;-71.436;2023-02-15T01:12:00;18.67;15.80;10.53
64861;PMS5003;62652;42.274;-71.436;2023-02-15T01:13:00;16.27;13.83;8.23
64861;PMS5003;62652;42.274;-71.436;2023-02-15T01:14:00;13.90;13.07;9.10
64861;PMS5003;62652;42.274;-71.436;2023-02-15T01:15:00;13.93;11.83;8.77
64861;PMS5003;62652;42.274;-71.436;2023-02-15T01:16:00;15.97;13.80;9.20
64861;PMS5003;62652;42.274;-71.436;2023-02-15T01:17:00;16.27;14.03;9.07
64861;PMS5003;62652;42.274;-71.436;2023-02-15T01:18:00;15.27;14.33;9.03
64861;PMS5003;62652;42.274;-71.436;2023-02-15T01:19:00;16.17;15.23;10.13
64861;PMS5003;62652;42.274;-71.436;2023-02-15T01:20:00;18.57;17.97;13.17
64861;PMS5003;62652;42.274;-71.436;2023-02-15T01:21:08;19.47;17.60;10.60
64861;PMS5003;62652;42.274;-71.436;2023-02-15T01:22:00;19.37;16.10;9.60
64861;PMS5003;62652;42.274;-71.436;2023-02-15T01:23:00;19.07;17.67;10.77
64861;PMS5003;62652;42.274;-71.436;2023-02-15T01:24:00;19.57;17.63;11.53
64861;PMS5003;62652;42.274;-71.436;2023-02-15T01:25:00;21.60;20.03;12.00
64861;PMS5003;62652;42.274;-71.436;2023-02-15T01:26:01;21.77;18.17;12.37
64861;PMS5003;62652;42.274;-71.436;2023-02-15T01:27:00;18.03;16.53;11.70
64861;PMS5003;62652;42.274;-71.436;2023-02-15T01:28:00;24.50;19.37;14.50
64861;PMS5003;62652;42.274;-71.436;2023-02-15T01:29:00;18.97;16.80;10.93
64861;PMS5003;62652;42.274;-71.436;2023-02-15T01:30:00;18.00;17.27;11.43
64861;PMS5003;62652;42.274;-71.436;2023-02-15T01:31:04;20.60;19.80;12.87
64861;PMS5003;62652;42.274;-71.436;2023-02-15T01:32:01;19.60;17.87;11.23
64861;PMS5003;62652;42.274;-71.436;2023-02-15T01:33:00;18.07;16.00;10.93
64861;PMS5003;62652;42.274;-71.436;2023-02-15T01:34:00;16.53;15.33;11.27
64861;PMS5003;62652;42.274;-71.436;2023-02-15T01:35:00;20.67;17.63;12.30
64861;PMS5003;62652;42.274;-71.436;2023-02-15T01:36:01;24.60;20.07;14.17
64861;PMS5003;62652;42.274;-71.436;2023-02-15T01:37:01;19.73;18.37;14.60
64861;PMS5003;62652;42.274;-71.436;2023-02-15T01:38:00;20.23;18.63;15.03
64861;PMS5003;62652;42.274;-71.436;2023-02-15T01:39:01;21.10;19.37;15.57
64861;PMS5003;62652;42.274;-71.436;2023-02-15T01:40:01;20.23;17.77;13.27
64861;PMS5003;62652;42.274;-71.436;2023-02-15T01:41:00;20.77;18.57;14.13
64861;PMS5003;62652;42.274;-71.436;2023-02-15T01:42:00;20.10;17.13;13.53
64861;PMS5003;62652;42.274;-71.436;2023-02-15T01:43:00;18.07;17.10;13.80
64861;PMS5003;62652;42.274;-71.436;2023-02-15T01:44:02;17.57;16.40;11.83
64861;PMS5003;62652;42.274;-71.436;2023-02-15T01:45:01;17.77;17.40;13.23
64861;PMS5003;62652;42.274;-71.436;2023-02-15T01:46:00;19.83;19.27;13.67
64861;PMS5003;62652;42.274;-71.436;2023-02-15T01:47:00;23.93;20.83;14.83
64861;PMS5003;62652;42.274;-71.436;2023-02-15T01:48:01;20.47;18.90;13.73
64861;PMS5003;62652;42.274;-71.436;2023-02-15T01:49:02;21.67;19.83;14.40
64861;PMS5003;62652;42.274;-71.436;2023-02-15T01:50:03;18.20;17.27;12.07
64861;PMS5003;62652;42.274;-71.436;2023-02-15T01:51:00;21.40;17.67;13.13
64861;PMS5003;62652;42.274;-71.436;2023-02-15T01:52:00;17.67;15.93;11.97
64861;PMS5003;62652;42.274;-71.436;2023-02-15T01:53:02;19.40;17.40;11.77
64861;PMS5003;62652;42.274;-71.436;2023-02-15T01:54:01;21.13;18.07;13.07
64861;PMS5003;62652;42.274;-71.436;2023-02-15T01:55:00;18.33;17.17;12.90
64861;PMS5003;62652;42.274;-71.436;2023-02-15T01:56:01;20.20;17.57;11.77
64861;PMS5003;62652;42.274;-71.436;2023-02-15T01:57:01;16.53;16.20;11.37
64861;PMS5003;62652;42.274;-71.436;2023-02-15T01:58:00;13.07;11.50;8.33
64861;PMS5003;62652;42.274;-71.436;2023-02-15T01:59:02;13.77;12.27;8.00
64861;PMS5003;62652;42.274;-71.436;2023-02-15T02:00:01;12.73;11.30;7.70
64861;PMS5003;62652;42.274;-71.436;2023-02-15T02:01:00;11.30;11.20;7.60
64861;PMS5003;62652;42.274;-71.436;2023-02-15T02:02:00;13.80;12.97;7.50
64861;PMS5003;62652;42.274;-71.436;2023-02-15T02:03:00;11.73;11.10;7.20
64861;PMS5003;62652;42.274;-71.436;2023-02-15T02:04:02;11.83;9.47;6.70
64861;PMS5003;62652;42.274;-71.436;2023-02-15T02:05:02;9.80;8.37;6.30
64861;PMS5003;62652;42.274;-71.436;2023-02-15T02:06:00;12.50;11.40;6.87
64861;PMS5003;62652;42.274;-71.436;2023-02-15T02:07:00;9.80;9.60;6.37
64861;PMS5003;62652;42.274;-71.436;2023-02-15T02:08:01;12.13;9.80;6.70
64861;PMS5003;62652;42.274;-71.436;2023-02-15T02:09:00;12.00;9.47;6.83
64861;PMS5003;62652;42.274;-71.436;2023-02-15T02:10:01;12.37;11.47;7.43
64861;PMS5003;62652;42.274;-71.436;2023-02-15T02:11:00;11.70;10.30;7.23
64861;PMS5003;62652;42.274;-71.436;2023-02-15T02:12:00;13.40;11.60;7.10
64861;PMS5003;62652;42.274;-71.436;2023-02-15T02:13:02;9.40;7.73;5.40
64861;PMS5003;62652;42.274;-71.436;2023-02-15T02:14:00;9.30;9.00;6.37
64861;PMS5003;62652;42.274;-71.436;2023-02-15T02:15:00;9.00;8.60;6.73
64861;PMS5003;62652;42.274;-71.436;2023-02-15T02:16:02;13.13;12.27;8.20
64861;PMS5003;62652;42.274;-71.436;2023-02-15T02:17:02;10.97;8.83;6.30
64861;PMS5003;62652;42.274;-71.436;2023-02-15T02:18:03;13.00;11.27;7.90
64861;PMS5003;62652;42.274;-71.436;2023-02-15T02:19:06;8.93;8.93;6.83
64861;PMS5003;62652;42.274;-71.436;2023-02-15T02:20:09;11.57;11.53;9.23
64861;PMS5003;62652;42.274;-71.436;2023-02-15T02:21:10;20.13;18.47;14.07
64861;PMS5003;62652;42.274;-71.436;2023-02-15T02:23:04;10.40;9.97;7.20
64861;PMS5003;62652;42.274;-71.436;2023-02-15T02:24:05;13.13;12.40;8.63
64861;PMS5003;62652;42.274;-71.436;2023-02-15T02:28:02;11.73;10.37;6.63
64861;PMS5003;62652;42.274;-71.436;2023-02-15T02:29:06;10.90;8.87;6.67
64861;PMS5003;62652;42.274;-71.436;2023-02-15T02:30:06;11.70;9.13;6.13
64861;PMS5003;62652;42.274;-71.436;2023-02-15T02:31:07;9.87;9.67;6.77
64861;PMS5003;62652;42.274;-71.436;2023-02-15T02:32:06;8.23;7.90;4.97
64861;PMS5003;62652;42.274;-71.436;2023-02-15T02:33:09;10.40;10.10;6.90
64861;PMS5003;62652;42.274;-71.436;2023-02-15T02:34:01;8.87;8.80;6.87
64861;PMS5003;62652;42.274;-71.436;2023-02-15T02:35:01;12.70;10.53;6.80
64861;PMS5003;62652;42.274;-71.436;2023-02-15T02:36:03;9.80;9.17;6.23
64861;PMS5003;62652;42.274;-71.436;2023-02-15T02:37:03;11.50;10.27;6.97
64861;PMS5003;62652;42.274;-71.436;2023-02-15T02:38:03;8.20;7.33;6.00
64861;PMS5003;62652;42.274;-71.436;2023-02-15T02:39:06;8.93;8.40;6.63
64861;PMS5003;62652;42.274;-71.436;2023-02-15T02:40:03;13.83;12.07;7.37
64861;PMS5003;62652;42.274;-71.436;2023-02-15T02:41:06;10.87;9.77;6.47
64861;PMS5003;62652;42.274;-71.436;2023-02-15T02:42:01;12.20;8.00;5.90
64861;PMS5003;62652;42.274;-71.436;2023-02-15T02:43:01;10.23;9.37;6.70
64861;PMS5003;62652;42.274;-71.436;2023-02-15T02:44:01;12.43;10.13;6.13
64861;PMS5003;62652;42.274;-71.436;2023-02-15T02:45:02;8.20;8.20;5.90
64861;PMS5003;62652;42.274;-71.436;2023-02-15T02:46:02;8.03;8.03;5.97
64861;PMS5003;62652;42.274;-71.436;2023-02-15T02:47:02;13.17;11.60;6.83
64861;PMS5003;62652;42.274;-71.436;2023-02-15T02:48:02;11.03;10.83;6.97
64861;PMS5003;62652;42.274;-71.436;2023-02-15T02:49:01;10.83;10.77;6.67
64861;PMS5003;62652;42.274;-71.436;2023-02-15T02:50:01;10.97;9.30;6.90
64861;PMS5003;62652;42.274;-71.436;2023-02-15T02:51:00;11.47;10.40;7.23
64861;PMS5003;62652;42.274;-71.436;2023-02-15T02:52:01;11.70;10.47;6.27
64861;PMS5003;62652;42.274;-71.436;2023-02-15T02:53:00;12.23;11.17;8.03
64861;PMS5003;62652;42.274;-71.436;2023-02-15T02:54:01;10.83;10.40;7.33
64861;PMS5003;62652;42.274;-71.436;2023-02-15T02:55:01;11.77;9.97;6.53
64861;PMS5003;62652;42.274;-71.436;2023-02-15T02:56:02;11.33;10.70;6.83
64861;PMS5003;62652;42.274;-71.436;2023-02-15T02:57:01;12.83;10.77;6.73
64861;PMS5003;62652;42.274;-71.436;2023-02-15T02:58:01;10.30;10.13;7.40
64861;PMS5003;62652;42.274;-71.436;2023-02-15T02:59:01;11.67;11.17;7.60
64861;PMS5003;62652;42.274;-71.436;2023-02-15T03:00:01;14.90;14.60;11.10
64861;PMS5003;62652;42.274;-71.436;2023-02-15T03:01:02;14.57;13.07;9.80
64861;PMS5003;62652;42.274;-71.436;2023-02-15T03:02:02;13.70;13.20;9.43
64861;PMS5003;62652;42.274;-71.436;2023-02-15T03:03:02;13.43;12.57;8.20
64861;PMS5003;62652;42.274;-71.436;2023-02-15T03:04:01;13.17;11.57;8.20
64861;PMS5003;62652;42.274;-71.436;2023-02-15T03:05:01;10.70;10.07;7.43
64861;PMS5003;62652;42.274;-71.436;2023-02-15T03:06:01;10.90;9.57;6.23
64861;PMS5003;62652;42.274;-71.436;2023-02-15T03:07:01;11.47;10.73;6.73
64861;PMS5003;62652;42.274;-71.436;2023-02-15T03:08:00;10.20;8.97;5.33
64861;PMS5003;62652;42.274;-71.436;2023-02-15T03:09:03;9.20;9.20;5.17
64861;PMS5003;62652;42.274;-71.436;2023-02-15T03:10:02;11.37;10.57;5.77
64861;PMS5003;62652;42.274;-71.436;2023-02-15T03:11:01;9.10;8.73;4.63
64861;PMS5003;62652;42.274;-71.436;2023-02-15T03:12:01;9.03;8.53;5.27
64861;PMS5003;62652;42.274;-71.436;2023-02-15T03:13:00;9.43;7.73;5.90
64861;PMS5003;62652;42.274;-71.436;2023-02-15T03:14:00;12.43;10.27;7.93
64861;PMS5003;62652;42.274;-71.436;2023-02-15T03:15:01;9.30;9.10;6.00
64861;PMS5003;62652;42.274;-71.436;2023-02-15T03:16:00;11.77;10.67;8.53
64861;PMS5003;62652;42.274;-71.436;2023-02-15T03:17:00;9.97;8.63;6.33
64861;PMS5003;62652;42.274;-71.436;2023-02-15T03:18:00;9.60;8.13;5.67
64861;PMS5003;62652;42.274;-71.436;2023-02-15T03:19:01;11.47;9.57;5.60
64861;PMS5003;62652;42.274;-71.436;2023-02-15T03:20:01;10.77;9.07;5.50
64861;PMS5003;62652;42.274;-71.436;2023-02-15T03:21:01;11.27;9.20;4.97
64861;PMS5003;62652;42.274;-71.436;2023-02-15T03:22:03;10.77;10.00;6.10
64861;PMS5003;62652;42.274;-71.436;2023-02-15T03:23:01;9.73;8.70;6.03
64861;PMS5003;62652;42.274;-71.436;2023-02-15T03:24:02;8.73;8.57;5.10
64861;PMS5003;62652;42.274;-71.436;2023-02-15T03:25:02;9.60;8.20;5.73
64861;PMS5003;62652;42.274;-71.436;2023-02-15T03:26:01;10.37;9.73;6.00
64861;PMS5003;62652;42.274;-71.436;2023-02-15T03:27:00;11.67;9.23;6.00
64861;PMS5003;62652;42.274;-71.436;2023-02-15T03:28:01;9.10;9.00;6.20
64861;PMS5003;62652;42.274;-71.436;2023-02-15T03:29:00;10.43;9.57;6.23
64861;PMS5003;62652;42.274;-71.436;2023-02-15T03:30:00;12.03;11.17;8.53
64861;PMS5003;62652;42.274;-71.436;2023-02-15T03:31:01;11.07;10.17;6.00
64861;PMS5003;62652;42.274;-71.436;2023-02-15T03:32:02;13.03;11.17;6.30
64861;PMS5003;62652;42.274;-71.436;2023-02-15T03:33:01;11.33;10.87;8.73
64861;PMS5003;62652;42.274;-71.436;2023-02-15T03:34:02;12.70;11.60;9.40
64861;PMS5003;62652;42.274;-71.436;2023-02-15T03:35:00;12.43;12.43;7.60
64861;PMS5003;62652;42.274;-71.436;2023-02-15T03:36:01;13.03;10.47;6.90
64861;PMS5003;62652;42.274;-71.436;2023-02-15T03:37:02;9.63;9.27;6.93
64861;PMS5003;62652;42.274;-71.436;2023-02-15T03:38:00;12.10;10.77;7.00
64861;PMS5003;62652;42.274;-71.436;2023-02-15T03:39:02;11.20;11.00;7.70
64861;PMS5003;62652;42.274;-71.436;2023-02-15T03:40:02;12.90;11.90;7.73
64861;PMS5003;62652;42.274;-71.436;2023-02-15T03:41:00;12.13;9.60;6.13
64861;PMS5003;62652;42.274;-71.436;2023-02-15T03:42:03;12.30;11.90;7.80
64861;PMS5003;62652;42.274;-71.436;2023-02-15T03:43:01;15.60;13.57;9.77
64861;PMS5003;62652;42.274;-71.436;2023-02-15T03:44:02;14.63;14.00;9.90
64861;PMS5003;62652;42.274;-71.436;2023-02-15T03:45:02;15.27;13.23;9.17
64861;PMS5003;62652;42.274;-71.436;2023-02-15T03:46:05;14.87;13.43;7.87
64861;PMS5003;62652;42.274;-71.436;2023-02-15T03:47:03;17.07;13.97;8.93
64861;PMS5003;62652;42.274;-71.436;2023-02-15T03:48:00;16.07;14.93;10.67
64861;PMS5003;62652;42.274;-71.436;2023-02-15T03:49:02;15.40;14.43;9.43
64861;PMS5003;62652;42.274;-71.436;2023-02-15T03:50:01;13.03;11.87;7.27
64861;PMS5003;62652;42.274;-71.436;2023-02-15T03:51:01;13.23;11.73;6.80
64861;PMS5003;62652;42.274;-71.436;2023-02-15T03:52:00;12.90;12.50;9.73
64861;PMS5003;62652;42.274;-71.436;2023-02-15T03:53:01;12.07;11.67;8.57
64861;PMS5003;62652;42.274;-71.436;2023-02-15T03:54:01;12.10;11.83;8.73
64861;PMS5003;62652;42.274;-71.436;2023-02-15T03:55:01;16.13;13.07;7.60
64861;PMS5003;62652;42.274;-71.436;2023-02-15T03:56:00;11.10;10.73;8.80
64861;PMS5003;62652;42.274;-71.436;2023-02-15T03:57:00;13.53;13.17;9.43
64861;PMS5003;62652;42.274;-71.436;2023-02-15T03:58:00;12.60;11.43;6.93
64861;PMS5003;62652;42.274;-71.436;2023-02-15T03:59:00;12.50;11.00;8.20
64861;PMS5003;62652;42.274;-71.436;2023-02-15T04:00:01;11.70;11.70;8.17
64861;PMS5003;62652;42.274;-71.436;2023-02-15T04:01:03;14.77;13.03;8.90
64861;PMS5003;62652;42.274;-71.436;2023-02-15T04:02:04;17.40;15.07;9.03
64861;PMS5003;62652;42.274;-71.436;2023-02-15T04:03:07;15.20;13.47;8.97
64861;PMS5003;62652;42.274;-71.436;2023-02-15T04:04:02;13.13;12.23;8.97
64861;PMS5003;62652;42.274;-71.436;2023-02-15T04:05:00;12.13;11.97;8.43
64861;PMS5003;62652;42.274;-71.436;2023-02-15T04:06:01;11.77;11.77;8.87
64861;PMS5003;62652;42.274;-71.436;2023-02-15T04:07:00;15.93;14.73;9.97
64861;PMS5003;62652;42.274;-71.436;2023-02-15T04:08:00;15.67;13.73;9.47
64861;PMS5003;62652;42.274;-71.436;2023-02-15T04:09:00;14.00;13.20;9.77
64861;PMS5003;62652;42.274;-71.436;2023-02-15T04:10:00;16.70;15.33;10.43
64861;PMS5003;62652;42.274;-71.436;2023-02-15T04:11:00;15.10;13.07;8.80
64861;PMS5003;62652;42.274;-71.436;2023-02-15T04:12:00;15.03;14.23;10.33
64861;PMS5003;62652;42.274;-71.436;2023-02-15T04:13:00;16.47;14.73;10.43
64861;PMS5003;62652;42.274;-71.436;2023-02-15T04:14:00;12.33;11.63;9.33
64861;PMS5003;62652;42.274;-71.436;2023-02-15T04:15:00;13.53;12.83;9.47
64861;PMS5003;62652;42.274;-71.436;2023-02-15T04:16:00;12.90;12.20;9.73
64861;PMS5003;62652;42.274;-71.436;2023-02-15T04:17:02;12.23;11.70;9.33
64861;PMS5003;62652;42.274;-71.436;2023-02-15T04:18:01;12.20;11.20;9.00
64861;PMS5003;62652;42.274;-71.436;2023-02-15T04:19:00;15.33;13.17;9.67
64861;PMS5003;62652;42.274;-71.436;2023-02-15T04:20:00;11.17;10.70;8.60
64861;PMS5003;62652;42.274;-71.436;2023-02-15T04:21:00;17.07;15.10;10.20
64861;PMS5003;62652;42.274;-71.436;2023-02-15T04:22:00;14.03;11.57;8.43
64861;PMS5003;62652;42.274;-71.436;2023-02-15T04:23:00;12.17;11.07;8.33
64861;PMS5003;62652;42.274;-71.436;2023-02-15T04:24:00;13.67;13.13;10.03
64861;PMS5003;62652;42.274;-71.436;2023-02-15T04:25:00;13.37;12.07;9.00
64861;PMS5003;62652;42.274;-71.436;2023-02-15T04:26:02;13.10;12.77;9.87
64861;PMS5003;62652;42.274;-71.436;2023-02-15T04:27:01;13.53;12.90;9.30
64861;PMS5003;62652;42.274;-71.436;2023-02-15T04:28:01;13.10;11.63;8.07
64861;PMS5003;62652;42.274;-71.436;2023-02-15T04:29:00;16.53;15.63;9.10
64861;PMS5003;62652;42.274;-71.436;2023-02-15T04:30:00;12.87;11.63;9.00
64861;PMS5003;62652;42.274;-71.436;2023-02-15T04:31:00;13.83;12.67;8.43
64861;PMS5003;62652;42.274;-71.436;2023-02-15T04:32:00;12.40;11.43;8.03
64861;PMS5003;62652;42.274;-71.436;2023-02-15T04:33:00;15.67;12.97;8.30
64861;PMS5003;62652;42.274;-71.436;2023-02-15T04:34:00;11.63;10.47;7.87
64861;PMS5003;62652;42.274;-71.436;2023-02-15T04:35:00;13.70;12.73;9.30
64861;PMS5003;62652;42.274;-71.436;2023-02-15T04:36:00;13.93;11.90;8.70
64861;PMS5003;62652;42.274;-71.436;2023-02-15T04:37:00;14.50;12.80;9.40
64861;PMS5003;62652;42.274;-71.436;2023-02-15T04:38:00;13.27;12.07;8.77
64861;PMS5003;62652;42.274;-71.436;2023-02-15T04:39:01;14.47;12.17;9.17
64861;PMS5003;62652;42.274;-71.436;2023-02-15T04:40:00;14.67;12.80;9.30
64861;PMS5003;62652;42.274;-71.436;2023-02-15T04:41:00;14.07;13.87;10.30
64861;PMS5003;62652;42.274;-71.436;2023-02-15T04:42:00;12.07;12.00;9.27
64861;PMS5003;62652;42.274;-71.436;2023-02-15T04:43:00;15.50;15.03;10.50
64861;PMS5003;62652;42.274;-71.436;2023-02-15T04:44:00;17.67;16.83;11.87
64861;PMS5003;62652;42.274;-71.436;2023-02-15T04:45:00;20.23;15.83;10.20
64861;PMS5003;62652;42.274;-71.436;2023-02-15T04:46:00;17.10;16.23;10.73
64861;PMS5003;62652;42.274;-71.436;2023-02-15T04:47:00;19.67;17.37;12.17
64861;PMS5003;62652;42.274;-71.436;2023-02-15T04:48:00;18.20;16.47;11.00
64861;PMS5003;62652;42.274;-71.436;2023-02-15T04:49:00;16.63;14.40;10.57
64861;PMS5003;62652;42.274;-71.436;2023-02-15T04:50:00;16.07;13.60;9.67
64861;PMS5003;62652;42.274;-71.436;2023-02-15T04:51:04;14.70;13.37;9.60
64861;PMS5003;62652;42.274;-71.436;2023-02-15T04:52:00;19.03;17.50;10.13
64861;PMS5003;62652;42.274;-71.436;2023-02-15T04:53:00;16.90;15.63;11.10
64861;PMS5003;62652;42.274;-71.436;2023-02-15T04:54:00;12.77;12.20;9.20
64861;PMS5003;62652;42.274;-71.436;2023-02-15T04:55:00;14.73;14.20;9.70
64861;PMS5003;62652;42.274;-71.436;2023-02-15T04:56:00;14.77;12.80;9.93
64861;PMS5003;62652;42.274;-71.436;2023-02-15T04:57:00;16.57;16.10;10.00
64861;PMS5003;62652;42.274;-71.436;2023-02-15T04:58:00;12.57;12.33;10.13
64861;PMS5003;62652;42.274;-71.436;2023-02-15T04:59:00;15.63;14.80;10.60
64861;PMS5003;62652;42.274;-71.436;2023-02-15T05:00:00;16.73;13.20;9.60
64861;PMS5003;62652;42.274;-71.436;2023-02-15T05:01:01;16.53;15.67;10.60
64861;PMS5003;62652;42.274;-71.436;2023-02-15T05:02:00;16.00;14.73;10.53
64861;PMS5003;62652;42.274;-71.436;2023-02-15T05:03:00;13.33;12.40;9.03
64861;PMS5003;62652;42.274;-71.436;2023-02-15T05:04:00;16.97;15.57;9.80
64861;PMS5003;62652;42.274;-71.436;2023-02-15T05:05:00;14.60;13.40;10.13
64861;PMS5003;62652;42.274;-71.436;2023-02-15T05:06:00;13.93;12.53;9.20
64861;PMS5003;62652;42.274;-71.436;2023-02-15T05:07:00;12.70;11.23;8.80
64861;PMS5003;62652;42.274;-71.436;2023-02-15T05:08:00;15.03;12.20;9.57
64861;PMS5003;62652;42.274;-71.436;2023-02-15T05:09:00;15.83;14.40;9.70
64861;PMS5003;62652;42.274;-71.436;2023-02-15T05:10:00;15.23;13.63;9.73
64861;PMS5003;62652;42.274;-71.436;2023-02-15T05:11:00;14.53;13.40;10.33
64861;PMS5003;62652;42.274;-71.436;2023-02-15T05:12:01;12.80;12.50;9.47
64861;PMS5003;62652;42.274;-71.436;2023-02-15T05:13:00;16.47;14.40;9.97
64861;PMS5003;62652;42.274;-71.436;2023-02-15T05:14:00;16.93;15.43;10.17
64861;PMS5003;62652;42.274;-71.436;2023-02-15T05:15:00;16.93;15.67;10.00
64861;PMS5003;62652;42.274;-71.436;2023-02-15T05:16:00;12.90;12.47;9.20
64861;PMS5003;62652;42.274;-71.436;2023-02-15T05:17:00;14.33;13.67;9.13
64861;PMS5003;62652;42.274;-71.436;2023-02-15T05:18:00;17.20;14.63;9.63
64861;PMS5003;62652;42.274;-71.436;2023-02-15T05:19:00;16.93;14.70;11.27
64861;PMS5003;62652;42.274;-71.436;2023-02-15T05:20:00;17.07;16.70;10.40
64861;PMS5003;62652;42.274;-71.436;2023-02-15T05:21:00;16.23;13.20;10.07
64861;PMS5003;62652;42.274;-71.436;2023-02-15T05:22:00;16.03;14.23;10.10
64861;PMS5003;62652;42.274;-71.436;2023-02-15T05:23:01;15.87;15.13;10.50
64861;PMS5003;62652;42.274;-71.436;2023-02-15T05:24:00;15.63;14.00;9.97
64861;PMS5003;62652;42.274;-71.436;2023-02-15T05:25:00;17.07;13.47;9.10
64861;PMS5003;62652;42.274;-71.436;2023-02-15T05:26:00;15.63;13.47;9.23
64861;PMS5003;62652;42.274;-71.436;2023-02-15T05:27:00;16.10;14.43;10.20
64861;PMS5003;62652;42.274;-71.436;2023-02-15T05:28:00;18.03;15.50;9.87
64861;PMS5003;62652;42.274;-71.436;2023-02-15T05:29:00;17.17;15.63;10.70
64861;PMS5003;62652;42.274;-71.436;2023-02-15T05:30:00;15.30;15.23;10.00
64861;PMS5003;62652;42.274;-71.436;2023-02-15T05:31:03;18.47;15.90;10.33
64861;PMS5003;62652;42.274;-71.436;2023-02-15T05:32:00;15.90;13.93;9.23
64861;PMS5003;62652;42.274;-71.436;2023-02-15T05:33:00;17.63;15.87;10.77
64861;PMS5003;62652;42.274;-71.436;2023-02-15T05:34:01;12.63;12.63;9.77
64861;PMS5003;62652;42.274;-71.436;2023-02-15T05:35:00;15.50;14.43;9.27
64861;PMS5003;62652;42.274;-71.436;2023-02-15T05:36:00;14.83;13.00;10.43